createdAt,value
2019-04-14T00:00:33.698Z,2.17
2019-04-14T00:03:23.415Z,2.20
2019-04-14T00:06:02.614Z,2.18
2019-04-14T00:08:37.224Z,2.22
2019-04-14T00:11:10.962Z,2.16
2019-04-14T00:13:45.625Z,2.22
2019-04-14T00:16:20.656Z,2.23
2019-04-14T00:18:55.528Z,2.14
2019-04-14T00:21:38.912Z,2.18
2019-04-14T00:24:16.282Z,2.22
2019-04-14T00:26:51.013Z,2.17
2019-04-14T00:29:26.247Z,2.18
2019-04-14T00:32:00.902Z,2.16
2019-04-14T00:34:53.572Z,2.17
2019-04-14T00:37:53.446Z,2.21
2019-04-14T00:40:41.441Z,2.08
2019-04-14T00:43:52.831Z,2.03
2019-04-14T00:46:36.698Z,2.02
2019-04-14T00:49:11.444Z,1.97
2019-04-14T00:51:48.644Z,1.94
2019-04-14T00:54:22.362Z,1.88
2019-04-14T00:56:56.305Z,1.81
2019-04-14T00:59:33.394Z,1.79
2019-04-14T01:02:08.392Z,1.69
2019-04-14T01:04:42.705Z,1.63
2019-04-14T01:07:17.579Z,1.65
2019-04-14T01:09:51.453Z,1.72
2019-04-14T01:12:26.208Z,1.62
2019-04-14T01:15:00.736Z,1.64
2019-04-14T01:17:35.233Z,1.59
2019-04-14T01:20:10.097Z,1.52
2019-04-14T01:22:44.557Z,1.51
2019-04-14T01:25:19.374Z,1.56
2019-04-14T01:27:53.782Z,1.51
2019-04-14T01:30:28.573Z,1.42
2019-04-14T01:33:03.275Z,1.37
2019-04-14T01:35:37.892Z,1.41
2019-04-14T01:38:12.650Z,1.32
2019-04-14T01:40:48.756Z,1.27
2019-04-14T01:43:23.537Z,1.16
2019-04-14T01:46:05.216Z,1.18
2019-04-14T01:48:32.894Z,1.18
2019-04-14T01:51:31.286Z,1.24
2019-04-14T01:54:36.636Z,1.17
2019-04-14T01:57:30.674Z,1.10
2019-04-14T02:00:22.910Z,0.98
2019-04-14T02:02:57.608Z,0.97
2019-04-14T02:05:32.101Z,1.07
2019-04-14T02:08:08.981Z,0.97
2019-04-14T02:10:45.513Z,0.81
2019-04-14T02:13:20.331Z,0.78
2019-04-14T02:15:54.974Z,0.66
2019-04-14T02:18:29.646Z,0.62
2019-04-14T02:21:04.282Z,0.71
2019-04-14T02:23:39.151Z,0.61
2019-04-14T02:26:13.864Z,0.58
2019-04-14T02:28:48.253Z,0.53
2019-04-14T02:31:44.837Z,0.51
2019-04-14T02:34:44.869Z,0.51
2019-04-14T02:39:38.577Z,0.30
2019-04-14T02:47:44.764Z,0.45
2019-04-14T02:52:46.674Z,0.60
2019-04-14T02:55:08.560Z,0.60
2019-04-14T02:57:52.110Z,0.42
2019-04-14T03:00:35.567Z,0.48
2019-04-14T03:03:17.043Z,0.48
2019-04-14T03:05:44.366Z,0.54
2019-04-14T03:08:18.791Z,0.55
2019-04-14T03:10:55.839Z,0.51
2019-04-14T03:13:28.767Z,0.38
2019-04-14T03:16:11.049Z,0.30
2019-04-14T03:24:42.181Z,-0.02
2019-04-14T03:27:55.116Z,-0.12
2019-04-14T03:31:03.937Z,-0.17
2019-04-14T03:38:49.095Z,-0.35
2019-04-14T03:44:09.844Z,-0.46
2019-04-14T03:46:41.444Z,-0.50
2019-04-14T03:51:50.429Z,-0.54
2019-04-14T03:54:18.721Z,-0.61
2019-04-14T03:56:55.474Z,-0.60
2019-04-14T03:59:30.293Z,-0.65
2019-04-14T04:02:07.495Z,-0.66
2019-04-14T04:04:42.829Z,-0.67
2019-04-14T04:07:17.088Z,-0.69
2019-04-14T04:09:56.760Z,-0.73
2019-04-14T04:12:31.329Z,-0.77
2019-04-14T04:15:08.280Z,-0.78
2019-04-14T04:17:56.444Z,-0.73
2019-04-14T04:20:55.106Z,-0.72
2019-04-14T04:23:46.855Z,-0.72
2019-04-14T04:26:34.414Z,-0.73
2019-04-14T04:29:20.107Z,-0.70
2019-04-14T04:32:16.445Z,-0.76
2019-04-14T04:35:02.393Z,-0.75
2019-04-14T04:37:41.178Z,-0.75
2019-04-14T04:40:20.071Z,-0.71
2019-04-14T04:42:54.843Z,-0.72
2019-04-14T04:45:30.009Z,-0.70
2019-04-14T04:48:04.564Z,-0.66
2019-04-14T04:50:38.850Z,-0.59
2019-04-14T04:53:17.976Z,-0.52
2019-04-14T04:55:52.509Z,-0.43
2019-04-14T04:58:26.329Z,-0.39
2019-04-14T05:01:01.462Z,-0.28
2019-04-14T05:03:38.534Z,-0.22
2019-04-14T05:07:14.531Z,-0.16
2019-04-14T05:10:06.650Z,-0.05
2019-04-14T05:12:53.055Z,-0.05
2019-04-14T05:15:53.234Z,0.02
2019-04-14T05:18:29.059Z,0.10
2019-04-14T05:21:03.953Z,0.17
2019-04-14T05:23:38.855Z,0.26
2019-04-14T05:26:13.782Z,0.32
2019-04-14T05:28:50.692Z,0.47
2019-04-14T05:31:27.745Z,0.58
2019-04-14T05:34:02.256Z,0.76
2019-04-14T05:36:36.740Z,0.90
2019-04-14T05:39:11.738Z,1.12
2019-04-14T05:41:56.764Z,1.26
2019-04-14T05:44:23.152Z,1.32
2019-04-14T05:46:57.879Z,1.29
2019-04-14T05:49:39.127Z,1.38
2019-04-14T05:52:08.151Z,1.54
2019-04-14T05:54:42.962Z,1.79
2019-04-14T05:57:17.657Z,1.86
2019-04-14T05:59:52.664Z,1.93
2019-04-14T06:02:33.598Z,2.17
2019-04-14T06:05:09.170Z,2.44
2019-04-14T06:07:43.257Z,2.67
2019-04-14T06:10:16.964Z,4.14
2019-04-14T06:12:52.204Z,5.58
2019-04-14T06:15:27.136Z,6.21
2019-04-14T06:18:03.705Z,6.91
2019-04-14T06:20:38.859Z,7.61
2019-04-14T06:23:12.555Z,7.71
2019-04-14T06:25:47.587Z,7.52
2019-04-14T06:28:21.232Z,7.06
2019-04-14T06:31:19.197Z,6.91
2019-04-14T06:33:58.178Z,6.54
2019-04-14T06:37:02.787Z,6.13
2019-04-14T06:39:40.892Z,6.03
2019-04-14T06:42:17.095Z,5.59
2019-04-14T06:44:54.601Z,5.55
2019-04-14T06:47:30.513Z,5.84
2019-04-14T06:50:06.191Z,5.11
2019-04-14T06:52:41.393Z,4.82
2019-04-14T06:55:15.682Z,4.49
2019-04-14T06:57:49.771Z,4.01
2019-04-14T07:00:23.951Z,3.93
2019-04-14T07:02:58.274Z,3.95
2019-04-14T07:05:32.568Z,3.95
2019-04-14T07:08:07.333Z,3.92
2019-04-14T07:10:41.226Z,3.85
2019-04-14T07:13:15.274Z,3.92
2019-04-14T07:15:49.208Z,3.96
2019-04-14T07:18:24.676Z,4.02
2019-04-14T07:20:59.341Z,4.10
2019-04-14T07:23:41.311Z,4.25
2019-04-14T07:26:15.387Z,4.65
2019-04-14T07:28:56.670Z,4.64
2019-04-14T07:31:59.888Z,4.64
2019-04-14T07:34:57.540Z,4.86
2019-04-14T07:37:51.399Z,5.67
2019-04-14T07:40:44.367Z,5.58
2019-04-14T07:43:47.174Z,6.71
2019-04-14T07:46:39.958Z,6.59
2019-04-14T07:49:24.919Z,6.67
2019-04-14T07:52:12.347Z,6.26
2019-04-14T07:55:13.570Z,5.97
2019-04-14T07:58:25.447Z,5.84
2019-04-14T08:01:15.145Z,5.90
2019-04-14T08:04:16.962Z,6.34
2019-04-14T08:06:52.741Z,6.32
2019-04-14T08:09:27.951Z,6.73
2019-04-14T08:12:02.155Z,6.53
2019-04-14T08:14:37.924Z,6.00
2019-04-14T08:17:11.551Z,5.85
2019-04-14T08:19:45.280Z,5.85
2019-04-14T08:22:24.644Z,5.92
2019-04-14T08:25:00.011Z,5.83
2019-04-14T08:27:34.846Z,5.76
2019-04-14T08:30:10.593Z,5.75
2019-04-14T08:32:44.353Z,5.64
2019-04-14T08:35:19.544Z,5.59
2019-04-14T08:37:53.392Z,5.74
2019-04-14T08:40:27.057Z,5.77
2019-04-14T08:43:27.675Z,5.69
2019-04-14T08:46:15.296Z,5.69
2019-04-14T08:48:54.575Z,5.79
2019-04-14T08:51:36.542Z,5.78
2019-04-14T08:54:31.547Z,5.64
2019-04-14T08:57:34.598Z,5.57
2019-04-14T09:00:14.440Z,5.57
2019-04-14T09:03:21.508Z,5.63
2019-04-14T09:06:06.060Z,5.73
2019-04-14T09:09:07.604Z,5.68
2019-04-14T09:11:48.178Z,5.85
2019-04-14T09:14:21.864Z,5.90
2019-04-14T09:16:56.795Z,6.12
2019-04-14T09:19:31.965Z,6.16
2019-04-14T09:22:05.980Z,6.05
2019-04-14T09:24:40.288Z,5.88
2019-04-14T09:27:15.059Z,5.92
2019-04-14T09:29:52.266Z,5.96
2019-04-14T09:32:26.772Z,6.14
2019-04-14T09:35:00.705Z,6.05
2019-04-14T09:37:34.761Z,6.12
2019-04-14T09:40:10.266Z,6.08
2019-04-14T09:42:45.415Z,6.00
2019-04-14T09:45:21.320Z,6.22
2019-04-14T09:47:58.462Z,6.33
2019-04-14T09:50:33.491Z,6.28
2019-04-14T09:53:07.198Z,6.22
2019-04-14T09:55:41.869Z,6.33
2019-04-14T09:58:15.560Z,6.27
2019-04-14T10:00:49.448Z,6.22
2019-04-14T10:03:24.350Z,6.27
2019-04-14T10:05:58.181Z,6.12
2019-04-14T10:08:32.367Z,6.27
2019-04-14T10:11:06.475Z,6.52
2019-04-14T10:13:42.163Z,6.77
2019-04-14T10:16:15.877Z,6.85
2019-04-14T10:18:51.508Z,6.76
2019-04-14T10:21:28.086Z,6.89
2019-04-14T10:24:03.026Z,6.76
2019-04-14T10:26:36.787Z,6.78
2019-04-14T10:29:10.896Z,6.75
2019-04-14T10:31:44.795Z,6.49
2019-04-14T10:34:20.303Z,6.59
2019-04-14T10:37:01.156Z,6.67
2019-04-14T10:39:35.176Z,6.57
2019-04-14T10:42:09.473Z,6.63
2019-04-14T10:44:43.381Z,6.67
2019-04-14T10:47:17.524Z,6.53
2019-04-14T10:49:53.252Z,6.53
2019-04-14T10:52:30.158Z,6.44
2019-04-14T10:55:04.102Z,6.43
2019-04-14T10:57:39.316Z,6.26
2019-04-14T11:00:15.596Z,6.27
2019-04-14T11:02:49.818Z,6.23
2019-04-14T11:05:25.034Z,6.28
2019-04-14T11:07:58.842Z,6.32
2019-04-14T11:10:33.623Z,6.35
2019-04-14T11:13:07.213Z,6.34
2019-04-14T11:15:41.091Z,6.32
2019-04-14T11:18:14.904Z,6.17
2019-04-14T11:20:49.022Z,6.08
2019-04-14T11:23:26.905Z,6.20
2019-04-14T11:26:01.330Z,6.18
2019-04-14T11:28:35.299Z,6.26
2019-04-14T11:31:09.455Z,6.32
2019-04-14T11:34:03.576Z,6.32
2019-04-14T11:37:16.647Z,6.39
2019-04-14T11:39:52.048Z,6.34
2019-04-14T11:42:28.685Z,6.14
2019-04-14T11:45:04.993Z,5.98
2019-04-14T11:47:39.838Z,6.07
2019-04-14T11:50:14.796Z,6.14
2019-04-14T11:52:48.974Z,6.14
2019-04-14T11:55:25.006Z,6.09
2019-04-14T11:57:58.934Z,5.99
2019-04-14T12:00:58.555Z,6.06
2019-04-14T12:03:46.085Z,6.13
2019-04-14T12:06:48.549Z,6.14
2019-04-14T12:09:33.201Z,6.21
2019-04-14T12:12:09.453Z,6.09
2019-04-14T12:14:44.088Z,5.99
2019-04-14T12:17:17.876Z,5.81
2019-04-14T12:19:55.166Z,5.74
2019-04-14T12:22:29.612Z,5.58
2019-04-14T12:25:03.324Z,5.53
2019-04-14T12:27:37.024Z,5.47
2019-04-14T12:30:13.829Z,5.51
2019-04-14T12:32:47.703Z,5.52
2019-04-14T12:35:21.586Z,5.51
2019-04-14T12:37:55.740Z,5.53
2019-04-14T12:40:32.206Z,5.52
2019-04-14T12:43:13.018Z,5.68
2019-04-14T12:46:10.207Z,5.76
2019-04-14T12:48:54.455Z,5.90
2019-04-14T12:51:34.466Z,5.84
2019-04-14T12:54:08.362Z,5.69
2019-04-14T12:56:43.648Z,5.59
2019-04-14T12:59:23.150Z,5.49
2019-04-14T13:02:19.645Z,5.50
2019-04-14T13:04:55.482Z,5.33
2019-04-14T13:07:29.917Z,5.42
2019-04-14T13:10:03.806Z,5.42
2019-04-14T13:12:38.128Z,5.45
2019-04-14T13:15:13.655Z,5.37
2019-04-14T13:17:49.765Z,5.30
2019-04-14T13:20:23.848Z,5.34
2019-04-14T13:22:59.122Z,5.38
2019-04-14T13:25:33.616Z,5.28
2019-04-14T13:28:07.282Z,5.20
2019-04-14T13:30:43.133Z,5.18
2019-04-14T13:33:18.756Z,5.22
2019-04-14T13:35:54.562Z,5.31
2019-04-14T13:38:28.331Z,5.29
2019-04-14T13:41:03.933Z,5.33
2019-04-14T13:43:37.744Z,5.33
2019-04-14T13:46:11.674Z,5.30
2019-04-14T13:48:45.567Z,5.32
2019-04-14T13:51:19.153Z,5.33
2019-04-14T13:53:53.491Z,5.31
2019-04-14T13:56:27.499Z,5.34
2019-04-14T13:59:03.094Z,5.34
2019-04-14T14:01:36.812Z,5.40
2019-04-14T14:04:12.107Z,5.36
2019-04-14T14:06:46.125Z,5.41
2019-04-14T14:09:20.024Z,5.38
2019-04-14T14:11:59.313Z,5.34
2019-04-14T14:14:46.464Z,5.36
2019-04-14T14:17:31.428Z,5.34
2019-04-14T14:20:14.628Z,5.38
2019-04-14T14:23:19.999Z,5.37
2019-04-14T14:25:58.765Z,5.33
2019-04-14T14:28:32.890Z,5.39
2019-04-14T14:31:06.626Z,5.34
2019-04-14T14:33:40.905Z,5.42
2019-04-14T14:36:16.077Z,5.40
2019-04-14T14:38:50.132Z,5.32
2019-04-14T14:41:23.999Z,5.38
2019-04-14T14:43:58.209Z,5.26
2019-04-14T14:46:51.056Z,5.38
2019-04-14T14:49:45.999Z,5.37
2019-04-14T14:52:21.231Z,5.39
2019-04-14T14:54:56.025Z,5.37
2019-04-14T14:57:31.367Z,5.40
2019-04-14T15:00:09.492Z,5.43
2019-04-14T15:02:43.760Z,5.51
2019-04-14T15:05:18.418Z,5.49
2019-04-14T15:07:53.264Z,5.45
2019-04-14T15:10:27.985Z,5.55
2019-04-14T15:13:02.163Z,5.61
2019-04-14T15:15:37.925Z,5.59
2019-04-14T15:18:12.274Z,5.59
2019-04-14T15:20:46.494Z,5.58
2019-04-14T15:23:25.279Z,5.66
2019-04-14T15:26:00.861Z,5.67
2019-04-14T15:28:36.678Z,5.70
2019-04-14T15:31:14.005Z,5.65
2019-04-14T15:33:49.101Z,5.75
2019-04-14T15:36:23.528Z,5.75
2019-04-14T15:38:57.770Z,5.89
2019-04-14T15:41:33.395Z,5.90
2019-04-14T15:44:08.691Z,5.83
2019-04-14T15:46:43.308Z,5.92
2019-04-14T15:49:19.592Z,5.88
2019-04-14T15:51:53.636Z,5.85
2019-04-14T15:54:27.652Z,5.88
2019-04-14T15:57:19.097Z,5.81
2019-04-14T16:00:13.074Z,5.92
2019-04-14T16:02:54.444Z,5.92
2019-04-14T16:05:36.343Z,5.97
2019-04-14T16:08:16.299Z,6.05
2019-04-14T16:10:55.314Z,6.05
2019-04-14T16:13:48.060Z,6.03
2019-04-14T16:16:42.121Z,5.91
2019-04-14T16:19:21.362Z,5.99
2019-04-14T16:21:54.973Z,6.10
2019-04-14T16:24:29.217Z,6.00
2019-04-14T16:27:11.783Z,6.06
2019-04-14T16:29:55.834Z,6.06
2019-04-14T16:33:01.564Z,6.06
2019-04-14T16:35:36.236Z,5.95
2019-04-14T16:38:13.563Z,6.07
2019-04-14T16:40:47.412Z,6.12
2019-04-14T16:43:26.276Z,5.98
2019-04-14T16:46:00.765Z,6.00
2019-04-14T16:48:34.934Z,6.04
2019-04-14T16:51:10.411Z,5.99
2019-04-14T16:53:46.591Z,6.00
2019-04-14T16:56:53.329Z,5.94
2019-04-14T16:59:27.332Z,5.98
2019-04-14T17:02:10.722Z,6.02
2019-04-14T17:04:37.399Z,5.94
2019-04-14T17:07:11.319Z,5.97
2019-04-14T17:09:45.263Z,6.02
2019-04-14T17:12:22.323Z,6.10
2019-04-14T17:15:02.163Z,6.11
2019-04-14T17:18:05.329Z,6.01
2019-04-14T17:21:07.493Z,5.97
2019-04-14T17:23:46.489Z,6.00
2019-04-14T17:26:42.118Z,6.07
2019-04-14T17:29:31.276Z,6.02
2019-04-14T17:32:30.265Z,5.96
2019-04-14T17:35:19.106Z,5.93
2019-04-14T17:38:04.390Z,5.92
2019-04-14T17:40:48.715Z,5.93
2019-04-14T17:43:56.377Z,5.89
2019-04-14T17:47:01.023Z,5.96
2019-04-14T17:49:56.600Z,5.95
2019-04-14T17:52:39.549Z,5.90
2019-04-14T17:55:30.887Z,6.04
2019-04-14T17:58:13.018Z,5.98
2019-04-14T18:01:05.067Z,5.99
2019-04-14T18:03:52.793Z,5.93
2019-04-14T18:06:38.784Z,6.02
2019-04-14T18:09:45.952Z,5.94
2019-04-14T18:12:41.658Z,5.90
2019-04-14T18:15:33.692Z,5.83
2019-04-14T18:18:39.215Z,5.77
2019-04-14T18:21:13.099Z,5.80
2019-04-14T18:23:47.720Z,5.89
2019-04-14T18:26:23.209Z,5.82
2019-04-14T18:29:15.213Z,5.75
2019-04-14T18:32:13.799Z,5.72
2019-04-14T18:35:02.781Z,5.69
2019-04-14T18:38:09.012Z,5.72
2019-04-14T18:41:01.642Z,5.62
2019-04-14T18:43:52.127Z,5.62
2019-04-14T18:47:03.893Z,5.62
2019-04-14T18:50:03.047Z,5.64
2019-04-14T18:52:52.031Z,5.64
2019-04-14T18:55:44.522Z,5.62
2019-04-14T18:58:29.421Z,5.65
2019-04-14T19:01:07.770Z,5.61
2019-04-14T19:03:42.921Z,5.56
2019-04-14T19:06:19.169Z,5.62
2019-04-14T19:08:55.306Z,5.58
2019-04-14T19:11:53.561Z,5.55
2019-04-14T19:14:35.782Z,5.58
2019-04-14T19:17:32.444Z,5.59
2019-04-14T19:20:06.919Z,5.56
2019-04-14T19:22:42.371Z,5.53
2019-04-14T19:25:18.728Z,5.51
2019-04-14T19:27:52.586Z,5.52
2019-04-14T19:30:26.767Z,5.50
2019-04-14T19:33:02.442Z,5.48
2019-04-14T19:35:36.439Z,5.46
2019-04-14T19:38:10.445Z,5.46
2019-04-14T19:40:45.785Z,5.49
2019-04-14T19:43:23.872Z,5.53
2019-04-14T19:46:00.871Z,5.50
2019-04-14T19:48:34.745Z,5.52
2019-04-14T19:51:08.812Z,5.63
2019-04-14T19:53:47.921Z,5.69
2019-04-14T19:56:21.819Z,5.64
2019-04-14T19:58:56.499Z,5.67
2019-04-14T20:01:30.263Z,5.67
2019-04-14T20:04:09.444Z,5.64
2019-04-14T20:06:45.347Z,5.62
2019-04-14T20:09:19.327Z,5.58
2019-04-14T20:12:01.002Z,5.58
2019-04-14T20:14:38.954Z,5.56
2019-04-14T20:17:28.495Z,5.53
2019-04-14T20:20:22.591Z,5.55
2019-04-14T20:23:07.693Z,5.56
2019-04-14T20:26:01.311Z,5.54
2019-04-14T20:28:40.126Z,5.62
2019-04-14T20:31:40.001Z,5.69
2019-04-14T20:34:13.988Z,5.68
2019-04-14T20:36:47.648Z,5.69
2019-04-14T20:39:25.242Z,5.70
2019-04-14T20:41:59.090Z,5.74
2019-04-14T20:44:33.329Z,5.76
2019-04-14T20:47:10.295Z,5.79
2019-04-14T20:49:45.186Z,5.84
2019-04-14T20:52:19.394Z,5.76
2019-04-14T20:54:53.964Z,5.73
2019-04-14T20:57:29.644Z,5.69
2019-04-14T21:00:03.963Z,5.69
2019-04-14T21:02:55.688Z,5.67
2019-04-14T21:05:51.412Z,5.64
2019-04-14T21:08:54.709Z,5.65
2019-04-14T21:11:41.507Z,5.64
2019-04-14T21:14:42.891Z,5.63
2019-04-14T21:17:32.695Z,5.66
2019-04-14T21:20:15.174Z,5.68
2019-04-14T21:23:01.535Z,5.63
2019-04-14T21:26:00.304Z,5.69
2019-04-14T21:28:37.485Z,5.75
2019-04-14T21:31:18.657Z,5.74
2019-04-14T21:34:13.549Z,5.78
2019-04-14T21:37:22.146Z,5.79
2019-04-14T21:40:16.419Z,5.89
2019-04-14T21:42:50.089Z,5.90
2019-04-14T21:45:26.181Z,5.91
2019-04-14T21:48:01.119Z,5.95
2019-04-14T21:50:34.926Z,6.01
2019-04-14T21:53:08.886Z,6.13
2019-04-14T21:55:42.644Z,6.04
2019-04-14T21:58:41.196Z,6.13
2019-04-14T22:01:53.994Z,6.19
2019-04-14T22:04:53.607Z,6.14
2019-04-14T22:07:46.798Z,6.29
2019-04-14T22:10:38.271Z,6.15
2019-04-14T22:13:11.905Z,6.15
2019-04-14T22:15:45.560Z,5.96
2019-04-14T22:18:19.803Z,6.04
2019-04-14T22:20:53.519Z,6.01
2019-04-14T22:23:27.208Z,6.00
2019-04-14T22:26:01.014Z,6.14
2019-04-14T22:28:55.798Z,6.08
2019-04-14T22:31:31.667Z,6.19
2019-04-14T22:34:05.830Z,6.18
2019-04-14T22:36:39.382Z,6.09
2019-04-14T22:39:16.839Z,6.19
2019-04-14T22:41:50.610Z,6.17
2019-04-14T22:44:26.170Z,5.98
2019-04-14T22:46:59.825Z,5.99
2019-04-14T22:49:33.644Z,5.97
2019-04-14T22:52:07.557Z,5.84
2019-04-14T22:54:42.437Z,5.93
2019-04-14T22:57:16.386Z,5.93
2019-04-14T22:59:51.218Z,5.98
2019-04-14T23:02:48.457Z,6.15
2019-04-14T23:05:49.184Z,6.08
2019-04-14T23:08:37.726Z,6.10
2019-04-14T23:11:29.132Z,5.98
2019-04-14T23:14:21.567Z,6.08
2019-04-14T23:17:32.464Z,6.00
2019-04-14T23:20:16.260Z,5.94
2019-04-14T23:23:07.565Z,5.76
2019-04-14T23:25:42.541Z,5.54
2019-04-14T23:28:17.230Z,5.52
2019-04-14T23:30:50.852Z,5.55
2019-04-14T23:33:25.525Z,5.45
2019-04-14T23:35:59.366Z,5.56
2019-04-14T23:38:34.230Z,5.40
2019-04-14T23:41:08.190Z,5.39
2019-04-14T23:43:42.020Z,5.24
2019-04-14T23:46:19.306Z,5.13
2019-04-14T23:48:54.235Z,5.20
2019-04-14T23:51:31.339Z,5.12
2019-04-14T23:54:05.905Z,5.12
2019-04-14T23:56:41.912Z,5.11
2019-04-14T23:59:15.816Z,5.06
